createdAt,value
2018-06-08T00:00:57.255Z,58.80
2018-06-08T00:03:25.206Z,58.70
2018-06-08T00:05:54.751Z,59.20
2018-06-08T00:08:23.317Z,59.70
2018-06-08T00:10:52.714Z,60.00
2018-06-08T00:13:21.562Z,60.90
2018-06-08T00:15:49.707Z,60.80
2018-06-08T00:18:17.329Z,61.10
2018-06-08T00:20:45.310Z,61.30
2018-06-08T00:23:13.688Z,61.60
2018-06-08T00:26:02.496Z,61.70
2018-06-08T00:28:31.004Z,62.20
2018-06-08T00:30:58.987Z,62.60
2018-06-08T00:33:26.929Z,62.60
2018-06-08T00:35:55.748Z,62.80
2018-06-08T00:38:24.525Z,63.00
2018-06-08T00:40:53.394Z,64.30
2018-06-08T00:43:21.064Z,63.30
2018-06-08T00:48:19.242Z,63.20
2018-06-08T00:50:47.412Z,63.50
2018-06-08T00:53:16.776Z,63.60
2018-06-08T00:55:46.027Z,63.60
2018-06-08T00:58:14.251Z,63.60
2018-06-08T01:00:42.665Z,63.60
2018-06-08T01:05:41.196Z,63.30
2018-06-08T01:08:08.897Z,63.30
2018-06-08T01:10:37.331Z,63.50
2018-06-08T01:13:04.967Z,63.50
2018-06-08T01:15:33.330Z,63.60
2018-06-08T01:18:01.027Z,63.60
2018-06-08T01:20:29.965Z,64.00
2018-06-08T01:22:57.958Z,64.10
2018-06-08T01:25:26.755Z,64.80
2018-06-08T01:27:54.415Z,64.80
2018-06-08T01:30:22.749Z,65.20
2018-06-08T01:32:50.455Z,65.30
2018-06-08T01:35:18.428Z,65.30
2018-06-08T01:37:46.784Z,65.50
2018-06-08T01:40:14.426Z,65.40
2018-06-08T01:45:12.353Z,66.20
2018-06-08T01:47:39.923Z,66.10
2018-06-08T01:50:07.519Z,66.20
2018-06-08T01:52:36.279Z,66.90
2018-06-08T01:55:04.735Z,66.90
2018-06-08T01:57:33.175Z,67.10
2018-06-08T02:00:01.079Z,67.30
2018-06-08T02:02:29.520Z,67.20
2018-06-08T02:04:57.231Z,67.20
2018-06-08T02:07:25.088Z,67.20
2018-06-08T02:09:53.498Z,67.10
2018-06-08T02:12:21.158Z,66.80
2018-06-08T02:14:49.962Z,66.50
2018-06-08T02:17:18.007Z,66.40
2018-06-08T02:19:46.731Z,66.10
2018-06-08T02:22:15.713Z,66.00
2018-06-08T02:24:44.505Z,66.20
2018-06-08T02:27:16.634Z,66.40
2018-06-08T02:29:45.287Z,65.80
2018-06-08T02:32:12.995Z,65.70
2018-06-08T02:34:41.532Z,65.20
2018-06-08T02:37:09.407Z,64.60
2018-06-08T02:39:37.803Z,63.70
2018-06-08T02:42:05.828Z,62.30
2018-06-08T02:44:34.234Z,62.90
2018-06-08T02:47:02.666Z,61.30
2018-06-08T02:49:30.615Z,60.90
2018-06-08T02:51:59.174Z,60.80
2018-06-08T02:54:27.816Z,60.10
2018-06-08T02:56:55.700Z,60.00
2018-06-08T02:59:23.769Z,59.90
2018-06-08T03:01:52.487Z,59.70
2018-06-08T03:04:21.415Z,59.30
2018-06-08T03:06:49.013Z,59.20
2018-06-08T03:09:17.433Z,59.00
2018-06-08T03:11:45.549Z,58.90
2018-06-08T03:14:14.216Z,58.70
2018-06-08T03:16:42.581Z,58.70
2018-06-08T03:19:10.403Z,58.50
2018-06-08T03:21:39.000Z,58.20
2018-06-08T03:24:09.174Z,57.70
2018-06-08T03:26:37.562Z,57.60
2018-06-08T03:29:06.437Z,57.00
2018-06-08T03:31:35.085Z,56.50
2018-06-08T03:34:10.152Z,55.90
2018-06-08T03:36:37.771Z,56.30
2018-06-08T03:39:06.160Z,55.20
2018-06-08T03:41:34.362Z,55.30
2018-06-08T03:44:02.319Z,54.50
2018-06-08T03:46:31.665Z,55.10
2018-06-08T03:49:00.448Z,54.60
2018-06-08T03:51:28.211Z,53.90
2018-06-08T03:53:56.764Z,53.70
2018-06-08T03:56:26.270Z,54.40
2018-06-08T03:58:54.881Z,53.70
2018-06-08T04:01:22.946Z,53.30
2018-06-08T04:03:51.875Z,53.30
2018-06-08T04:06:20.551Z,53.70
2018-06-08T04:08:50.968Z,53.70
2018-06-08T04:11:19.917Z,52.30
2018-06-08T04:13:48.096Z,52.10
2018-06-08T04:16:16.307Z,52.20
2018-06-08T04:18:52.133Z,52.20
2018-06-08T04:21:21.387Z,52.50
2018-06-08T04:23:49.578Z,50.90
2018-06-08T04:26:17.288Z,51.10
2018-06-08T04:28:45.462Z,50.10
2018-06-08T04:31:15.246Z,49.40
2018-06-08T04:33:43.295Z,50.40
2018-06-08T04:36:12.303Z,49.70
2018-06-08T04:38:41.263Z,49.10
2018-06-08T04:41:10.460Z,49.40
2018-06-08T04:43:39.469Z,48.90
2018-06-08T04:46:08.465Z,47.80
2018-06-08T04:48:37.446Z,47.70
2018-06-08T04:51:05.638Z,48.50
2018-06-08T04:53:34.740Z,46.80
2018-06-08T04:56:03.813Z,46.00
2018-06-08T04:58:32.475Z,45.40
2018-06-08T05:01:01.431Z,45.10
2018-06-08T05:15:11.914Z,43.30
2018-06-08T05:17:40.748Z,43.20
2018-06-08T05:20:09.129Z,42.20
2018-06-08T05:22:36.987Z,42.50
2018-06-08T05:25:05.259Z,42.50
2018-06-08T05:27:35.380Z,43.20
2018-06-08T05:30:03.451Z,43.50
2018-06-08T05:32:31.469Z,44.00
2018-06-08T05:35:00.763Z,44.00
2018-06-08T05:37:35.983Z,43.90
2018-06-08T05:40:04.391Z,43.70
2018-06-08T05:42:33.697Z,43.90
2018-06-08T05:45:01.885Z,43.70
2018-06-08T05:47:30.347Z,43.00
2018-06-08T05:49:58.934Z,42.70
2018-06-08T05:52:27.703Z,42.50
2018-06-08T05:54:55.553Z,42.40
2018-06-08T05:57:24.013Z,42.30
2018-06-08T05:59:58.104Z,41.90
2018-06-08T06:02:25.888Z,41.70
2018-06-08T06:04:54.601Z,42.20
2018-06-08T06:07:22.632Z,42.10
2018-06-08T06:09:50.668Z,41.80
2018-06-08T06:12:19.024Z,41.40
2018-06-08T06:14:47.050Z,42.30
2018-06-08T06:17:15.139Z,42.20
2018-06-08T06:19:43.050Z,42.30
2018-06-08T06:22:10.948Z,41.70
2018-06-08T06:24:38.677Z,42.70
2018-06-08T06:27:07.538Z,43.30
2018-06-08T06:29:35.883Z,42.30
2018-06-08T06:32:04.406Z,43.20
2018-06-08T06:34:32.383Z,43.60
2018-06-08T06:37:01.183Z,43.30
2018-06-08T06:39:28.810Z,43.30
2018-06-08T06:41:57.236Z,43.40
2018-06-08T06:44:28.068Z,43.10
2018-06-08T06:46:56.628Z,43.00
2018-06-08T06:49:24.552Z,42.90
2018-06-08T06:51:52.414Z,43.10
2018-06-08T06:54:20.312Z,42.70
2018-06-08T06:56:47.938Z,42.80
2018-06-08T06:59:21.478Z,42.40
2018-06-08T07:01:49.524Z,42.90
2018-06-08T07:04:17.367Z,42.50
2018-06-08T07:06:46.503Z,42.70
2018-06-08T07:09:14.373Z,41.90
2018-06-08T07:11:42.566Z,42.50
2018-06-08T07:14:10.161Z,43.20
2018-06-08T07:16:38.900Z,43.10
2018-06-08T07:19:07.265Z,43.20
2018-06-08T07:21:34.938Z,43.30
2018-06-08T07:24:02.547Z,43.00
2018-06-08T07:26:30.926Z,42.60
2018-06-08T07:28:58.594Z,44.30
2018-06-08T07:31:26.466Z,43.00
2018-06-08T07:33:55.111Z,43.50
2018-06-08T07:36:24.331Z,43.40
2018-06-08T07:38:52.730Z,43.40
2018-06-08T07:41:21.444Z,42.40
2018-06-08T07:43:49.744Z,41.90
2018-06-08T07:46:18.152Z,41.70
2018-06-08T07:48:45.775Z,42.30
2018-06-08T07:51:14.167Z,41.70
2018-06-08T07:53:42.053Z,41.60
2018-06-08T07:56:09.732Z,43.20
2018-06-08T07:58:38.779Z,42.40
2018-06-08T08:01:07.337Z,42.40
2018-06-08T08:03:35.715Z,41.60
2018-06-08T08:06:04.080Z,42.40
2018-06-08T08:08:34.195Z,42.30
2018-06-08T08:11:02.396Z,43.50
2018-06-08T08:13:31.139Z,43.30
2018-06-08T08:15:58.890Z,42.00
2018-06-08T08:18:27.382Z,42.60
2018-06-08T08:20:56.887Z,41.70
2018-06-08T08:23:24.583Z,41.70
2018-06-08T08:25:52.440Z,41.60
2018-06-08T08:28:20.452Z,41.40
2018-06-08T08:30:49.400Z,40.40
2018-06-08T08:33:18.887Z,40.90
2018-06-08T08:35:46.931Z,41.00
2018-06-08T08:38:14.679Z,41.20
2018-06-08T08:40:42.829Z,41.70
2018-06-08T08:43:10.819Z,42.90
2018-06-08T08:45:38.934Z,41.60
2018-06-08T08:48:06.923Z,41.40
2018-06-08T08:50:34.616Z,41.60
2018-06-08T08:53:02.316Z,41.70
2018-06-08T08:55:31.935Z,41.70
2018-06-08T08:57:59.791Z,42.00
2018-06-08T09:02:58.548Z,41.70
2018-06-08T09:05:27.043Z,41.90
2018-06-08T09:07:54.702Z,41.70
2018-06-08T09:10:23.010Z,41.70
2018-06-08T09:12:51.002Z,42.00
2018-06-08T09:15:18.739Z,41.10
2018-06-08T09:17:46.367Z,41.00
2018-06-08T09:20:16.479Z,41.20
2018-06-08T09:22:45.414Z,41.10
2018-06-08T09:25:15.386Z,41.20
2018-06-08T09:27:43.945Z,40.80
2018-06-08T09:30:12.511Z,41.60
2018-06-08T09:32:41.334Z,41.50
2018-06-08T09:35:09.775Z,41.00
2018-06-08T09:37:37.498Z,41.40
2018-06-08T09:40:05.671Z,41.70
2018-06-08T09:42:34.363Z,41.70
2018-06-08T09:45:03.902Z,42.40
2018-06-08T09:47:31.679Z,42.10
2018-06-08T09:49:59.370Z,41.10
2018-06-08T09:52:27.888Z,41.20
2018-06-08T09:54:55.591Z,41.30
2018-06-08T09:57:24.171Z,41.80
2018-06-08T09:59:53.485Z,41.20
2018-06-08T10:02:22.334Z,41.40
2018-06-08T10:04:51.333Z,41.80
2018-06-08T10:07:43.101Z,41.40
2018-06-08T10:10:10.722Z,41.30
2018-06-08T10:12:39.950Z,40.50
2018-06-08T10:15:07.876Z,40.40
2018-06-08T10:17:35.625Z,40.40
2018-06-08T10:20:03.294Z,40.50
2018-06-08T10:22:31.092Z,39.80
2018-06-08T10:24:59.111Z,40.40
2018-06-08T10:27:27.274Z,40.50
2018-06-08T10:29:56.654Z,40.40
2018-06-08T10:32:24.703Z,40.10
2018-06-08T10:34:52.458Z,39.70
2018-06-08T10:37:20.182Z,39.60
2018-06-08T10:39:48.219Z,39.80
2018-06-08T10:42:16.646Z,39.70
2018-06-08T10:44:45.382Z,40.10
2018-06-08T10:47:15.067Z,40.30
2018-06-08T10:49:43.192Z,40.20
2018-06-08T10:52:12.550Z,39.90
2018-06-08T10:54:41.710Z,39.80
2018-06-08T10:57:11.674Z,39.80
2018-06-08T10:59:40.247Z,40.00
2018-06-08T11:02:08.619Z,39.00
2018-06-08T11:04:37.794Z,39.60
2018-06-08T11:07:06.254Z,40.00
2018-06-08T11:09:34.018Z,39.50
2018-06-08T11:12:02.762Z,39.80
2018-06-08T11:14:38.088Z,39.30
2018-06-08T11:17:06.090Z,38.80
2018-06-08T11:19:34.806Z,38.60
2018-06-08T11:22:02.815Z,37.90
2018-06-08T11:24:30.927Z,38.70
2018-06-08T11:26:59.444Z,38.50
2018-06-08T11:29:27.834Z,39.10
2018-06-08T11:31:55.506Z,38.80
2018-06-08T11:34:24.018Z,39.50
2018-06-08T11:36:54.854Z,39.50
2018-06-08T11:39:22.925Z,39.90
2018-06-08T11:41:52.206Z,39.20
2018-06-08T11:44:20.744Z,39.20
2018-06-08T11:46:50.298Z,39.40
2018-06-08T11:49:18.766Z,40.10
2018-06-08T11:51:49.611Z,39.20
2018-06-08T11:54:18.616Z,39.10
2018-06-08T11:56:48.483Z,38.70
2018-06-08T11:59:16.530Z,38.70
2018-06-08T12:01:44.638Z,38.20
2018-06-08T12:04:13.102Z,38.40
2018-06-08T12:06:41.172Z,38.30
2018-06-08T12:09:11.411Z,39.20
2018-06-08T12:11:42.737Z,37.90
2018-06-08T12:14:10.571Z,37.80
2018-06-08T12:16:38.975Z,37.90
2018-06-08T12:19:07.726Z,37.50
2018-06-08T12:21:35.448Z,37.20
2018-06-08T12:24:04.467Z,38.30
2018-06-08T12:26:32.097Z,38.20
2018-06-08T12:29:00.047Z,39.00
2018-06-08T12:31:28.089Z,37.30
2018-06-08T12:33:56.050Z,36.50
2018-06-08T12:36:25.423Z,37.20
2018-06-08T12:38:53.162Z,37.60
2018-06-08T12:41:21.413Z,37.20
2018-06-08T12:43:49.189Z,36.20
2018-06-08T12:46:17.131Z,36.80
2018-06-08T12:48:46.357Z,35.30
2018-06-08T12:51:14.355Z,35.30
2018-06-08T13:00:25.779Z,36.10
2018-06-08T13:09:37.910Z,37.50
2018-06-08T13:12:06.003Z,37.90
2018-06-08T13:14:34.324Z,37.90
2018-06-08T13:17:02.935Z,36.90
2018-06-08T13:19:33.670Z,37.30
2018-06-08T13:22:01.352Z,36.80
2018-06-08T13:24:29.088Z,37.10
2018-06-08T13:26:57.009Z,37.10
2018-06-08T13:36:06.902Z,39.60
2018-06-08T13:38:34.955Z,39.50
2018-06-08T13:41:02.575Z,39.90
2018-06-08T13:43:31.122Z,40.00
2018-06-08T13:46:00.528Z,40.20
2018-06-08T13:48:28.190Z,40.10
2018-06-08T13:50:56.190Z,40.30
2018-06-08T13:53:24.774Z,39.80
2018-06-08T13:56:01.616Z,39.70
2018-06-08T13:58:29.427Z,39.60
2018-06-08T14:00:57.812Z,40.10
2018-06-08T14:03:25.930Z,40.00
2018-06-08T14:05:53.499Z,40.00
2018-06-08T14:08:21.243Z,39.60
2018-06-08T14:10:48.962Z,40.20
2018-06-08T14:13:17.404Z,40.30
2018-06-08T14:15:46.154Z,39.50
2018-06-08T14:18:14.683Z,39.80
2018-06-08T14:20:43.246Z,39.70
2018-06-08T14:23:11.704Z,39.50
2018-06-08T14:25:40.377Z,39.80
2018-06-08T14:28:08.090Z,39.60
2018-06-08T14:30:36.854Z,39.50
2018-06-08T14:33:05.642Z,39.50
2018-06-08T14:35:33.531Z,40.10
2018-06-08T14:38:01.256Z,39.50
2018-06-08T14:40:29.622Z,39.90
2018-06-08T14:42:57.630Z,40.10
2018-06-08T14:45:26.198Z,40.40
2018-06-08T14:56:44.324Z,40.70
2018-06-08T14:59:14.186Z,41.00
2018-06-08T15:01:42.768Z,40.50
2018-06-08T15:04:11.371Z,40.30
2018-06-08T15:06:39.367Z,41.10
2018-06-08T15:09:07.177Z,41.20
2018-06-08T15:11:34.904Z,40.90
2018-06-08T15:14:03.168Z,40.80
2018-06-08T15:16:31.703Z,41.10
2018-06-08T15:19:00.239Z,41.40
2018-06-08T15:21:28.656Z,41.70
2018-06-08T15:23:56.857Z,41.60
2018-06-08T15:26:26.315Z,41.70
2018-06-08T15:28:54.663Z,41.60
2018-06-08T15:31:22.791Z,41.30
2018-06-08T15:33:51.355Z,41.70
2018-06-08T15:36:21.084Z,42.40
2018-06-08T15:38:55.617Z,42.40
2018-06-08T15:41:24.159Z,42.00
2018-06-08T15:43:52.566Z,41.10
2018-06-08T15:46:20.547Z,41.00
2018-06-08T15:48:48.399Z,41.40
2018-06-08T15:51:16.765Z,41.90
2018-06-08T15:53:44.796Z,41.50
2018-06-08T15:56:12.781Z,40.80
2018-06-08T15:58:42.438Z,39.80
2018-06-08T16:01:10.673Z,39.70
2018-06-08T16:03:40.376Z,37.70
2018-06-08T16:06:08.998Z,33.40
2018-06-08T16:08:37.053Z,33.10
2018-06-08T16:11:05.553Z,32.00
2018-06-08T16:13:33.281Z,30.80
2018-06-08T16:16:01.790Z,29.20
2018-06-08T16:18:29.790Z,29.10
2018-06-08T16:20:58.049Z,28.90
2018-06-08T16:23:29.980Z,28.30
2018-06-08T16:25:57.790Z,27.90
2018-06-08T16:28:26.349Z,27.40
2018-06-08T16:30:54.054Z,27.30
2018-06-08T16:33:21.739Z,27.50
2018-06-08T16:35:49.590Z,27.70
2018-06-08T16:38:17.570Z,27.40
2018-06-08T16:47:33.367Z,26.40
2018-06-08T16:50:01.381Z,25.90
2018-06-08T16:52:33.406Z,25.90
2018-06-08T16:55:01.213Z,25.70
2018-06-08T16:57:29.026Z,25.80
2018-06-08T16:59:56.832Z,25.80
2018-06-08T17:02:24.538Z,25.40
2018-06-08T17:04:55.047Z,25.80
2018-06-08T17:07:26.310Z,26.20
2018-06-08T17:09:54.083Z,25.50
2018-06-08T17:12:22.587Z,25.90
2018-06-08T17:14:50.220Z,25.90
2018-06-08T17:17:18.223Z,26.10
2018-06-08T17:19:46.182Z,25.80
2018-06-08T17:22:15.009Z,25.00
2018-06-08T17:24:43.579Z,24.80
2018-06-08T17:27:11.799Z,24.70
2018-06-08T17:29:41.840Z,24.80
2018-06-08T17:32:09.948Z,24.80
2018-06-08T17:34:39.418Z,25.10
2018-06-08T17:37:16.303Z,24.90
2018-06-08T17:39:45.111Z,24.50
2018-06-08T17:42:12.986Z,24.10
2018-06-08T17:44:41.519Z,24.70
2018-06-08T17:47:09.334Z,25.00
2018-06-08T17:49:39.195Z,25.30
2018-06-08T17:52:07.050Z,25.60
2018-06-08T17:54:34.719Z,25.60
2018-06-08T17:57:03.108Z,25.00
2018-06-08T17:59:31.191Z,25.00
2018-06-08T18:01:58.967Z,25.20
2018-06-08T18:04:26.826Z,24.90
2018-06-08T18:06:55.535Z,25.50
2018-06-08T18:09:23.502Z,25.60
2018-06-08T18:11:51.541Z,26.70
2018-06-08T18:14:19.295Z,27.40
2018-06-08T18:16:47.001Z,28.70
2018-06-08T18:19:14.701Z,30.60
2018-06-08T18:21:42.475Z,33.20
2018-06-08T18:30:54.038Z,37.30
2018-06-08T18:33:21.907Z,41.10
2018-06-08T18:35:50.331Z,41.90
2018-06-08T18:38:20.336Z,42.70
2018-06-08T18:40:48.859Z,43.00
2018-06-08T18:43:19.786Z,43.60
2018-06-08T18:45:48.350Z,44.30
2018-06-08T18:48:16.985Z,44.60
2018-06-08T18:50:46.362Z,45.60
2018-06-08T18:59:01.917Z,46.60
2018-06-08T19:01:30.414Z,46.90
2018-06-08T19:03:59.090Z,47.20
2018-06-08T19:06:27.179Z,47.60
2018-06-08T19:08:54.948Z,48.00
2018-06-08T19:11:23.058Z,48.20
2018-06-08T19:13:50.907Z,48.40
2018-06-08T19:16:18.698Z,48.50
2018-06-08T19:18:46.475Z,48.70
2018-06-08T19:21:16.667Z,49.00
2018-06-08T19:23:45.228Z,49.50
2018-06-08T19:26:16.628Z,49.50
2018-06-08T19:28:45.518Z,49.70
2018-06-08T19:31:13.542Z,50.00
2018-06-08T19:33:41.596Z,50.20
2018-06-08T19:36:09.395Z,50.30
2018-06-08T19:38:37.925Z,50.70
2018-06-08T19:41:05.693Z,51.00
2018-06-08T19:43:35.147Z,51.10
2018-06-08T19:46:29.551Z,51.30
2018-06-08T19:48:58.034Z,51.40
2018-06-08T19:51:25.972Z,51.30
2018-06-08T19:53:54.466Z,51.50
2018-06-08T19:56:22.161Z,51.40
2018-06-08T19:58:49.826Z,51.60
2018-06-08T20:14:24.318Z,52.60
2018-06-08T20:16:52.675Z,53.80
2018-06-08T20:19:21.140Z,53.80
2018-06-08T20:21:49.556Z,54.10
2018-06-08T20:24:18.942Z,54.00
2018-06-08T20:26:46.651Z,54.10
2018-06-08T20:29:15.019Z,54.20
2018-06-08T20:31:43.556Z,54.30
2018-06-08T20:34:12.104Z,54.10
2018-06-08T20:36:40.431Z,54.40
2018-06-08T20:39:09.028Z,54.50
2018-06-08T20:41:37.366Z,54.60
2018-06-08T20:44:06.079Z,54.70
2018-06-08T20:46:34.547Z,55.00
2018-06-08T20:49:02.956Z,55.10
2018-06-08T20:51:31.731Z,55.60
2018-06-08T20:53:59.678Z,55.50
2018-06-08T20:56:28.051Z,55.70
2018-06-08T21:01:57.323Z,56.50
2018-06-08T21:04:25.275Z,56.50
2018-06-08T21:06:53.190Z,56.90
2018-06-08T21:09:21.570Z,57.00
2018-06-08T21:11:49.202Z,57.50
2018-06-08T21:14:16.855Z,57.70
2018-06-08T21:16:45.194Z,58.40
2018-06-08T21:19:14.286Z,58.60
2018-06-08T21:21:42.125Z,58.60
2018-06-08T21:24:10.530Z,58.90
2018-06-08T21:26:38.539Z,59.10
2018-06-08T21:29:06.310Z,59.40
2018-06-08T21:31:34.111Z,59.60
2018-06-08T21:34:02.569Z,59.70
2018-06-08T21:36:30.460Z,60.10
2018-06-08T21:38:58.127Z,60.40
2018-06-08T21:41:25.976Z,60.60
2018-06-08T21:43:56.917Z,60.60
2018-06-08T21:46:24.876Z,60.60
2018-06-08T21:48:52.746Z,60.90
2018-06-08T21:51:21.400Z,61.60
2018-06-08T21:53:48.995Z,61.60
2018-06-08T21:56:17.495Z,61.80
2018-06-08T21:58:46.699Z,62.10
2018-06-08T22:01:14.582Z,62.00
2018-06-08T22:03:42.251Z,62.40
2018-06-08T22:06:10.707Z,62.60
2018-06-08T22:08:39.774Z,62.80
2018-06-08T22:11:07.409Z,63.10
2018-06-08T22:13:35.267Z,63.50
2018-06-08T22:16:02.910Z,63.60
2018-06-08T22:18:31.642Z,64.20
2018-06-08T22:20:59.980Z,64.10
2018-06-08T22:23:27.917Z,64.60
2018-06-08T22:25:56.269Z,64.90
2018-06-08T22:28:31.706Z,65.10
2018-06-08T22:30:59.268Z,65.20
2018-06-08T22:33:28.149Z,65.60
2018-06-08T22:35:56.547Z,65.80
2018-06-08T22:38:24.517Z,66.10
2018-06-08T22:40:52.557Z,66.30
2018-06-08T22:43:21.006Z,66.60
2018-06-08T22:45:49.670Z,67.40
2018-06-08T22:48:18.035Z,67.40
2018-06-08T22:50:46.399Z,67.70
2018-06-08T22:53:14.314Z,67.70
2018-06-08T22:55:42.230Z,67.90
2018-06-08T22:58:10.655Z,68.10
2018-06-08T23:00:38.660Z,68.40
2018-06-08T23:03:07.795Z,68.70
2018-06-08T23:05:36.636Z,68.60
2018-06-08T23:08:04.538Z,68.60
2018-06-08T23:10:32.551Z,68.50
2018-06-08T23:13:01.085Z,68.60
2018-06-08T23:15:29.552Z,68.60
2018-06-08T23:17:58.490Z,68.20
2018-06-08T23:20:26.153Z,68.50
2018-06-08T23:22:54.578Z,68.50
2018-06-08T23:25:23.011Z,68.60
2018-06-08T23:27:50.967Z,69.00
2018-06-08T23:30:19.398Z,68.90
2018-06-08T23:32:48.547Z,69.40
2018-06-08T23:35:23.622Z,69.40
2018-06-08T23:37:51.234Z,69.50
2018-06-08T23:40:19.060Z,69.70
2018-06-08T23:42:46.726Z,69.70
2018-06-08T23:45:14.615Z,70.00
2018-06-08T23:47:44.026Z,70.50
2018-06-08T23:50:12.405Z,70.40
2018-06-08T23:52:40.055Z,70.50
2018-06-08T23:55:09.147Z,71.20
2018-06-08T23:57:36.902Z,71.10
